Euro IV — IQNH — position and weather

sailwx.info

Track history (hours):
 
Tides and Currents Weather Stations Pressure Air Temp Water Temp Dewpoint Dewpoint Depression Visibility Wind Speed Wind Dir Waves Ship Positions

Euro IV

Last reported at 2016-Jul-25 17:05 UTC. Time now 2016-Jul-25 20:07 UTC.
Position N 44°06' E 009°50'.

Length 25 m; draft 1.3 m.

Type: Passenger vessel. MMSI: 247131500.

Date/timePositionNaut miles runAvg speedWind from/ knotsBaromVisibWave heightAir tempDewpointWater temp
2016-Jul-25 17:05N 44°06' E 009°50'4 6.8
2016-Jul-25 16:33N 44°04' E 009°54'3 3.0
2016-Jul-25 15:34N 44°03' E 009°50'1 0.7
2016-Jul-25 14:33N 44°03' E 009°51'1 1.0
2016-Jul-25 13:33N 44°03' E 009°50'1 1.1
2016-Jul-25 12:34N 44°03' E 009°51'3 2.7
2016-Jul-25 11:33N 44°04' E 009°55'4 3.7
2016-Jul-25 10:33N 44°02' E 009°50'1 0.8
2016-Jul-25 09:33N 44°03' E 009°50'0 0.0
2016-Jul-25 08:33N 44°03' E 009°50'3 3.4
2016-Jul-25 07:33N 44°04' E 009°55'3 0.1
2016-Jul-23 17:33N 44°03' E 009°51'1211.1
2016-Jul-23 16:31N 44°09' E 009°37'7 7.3
2016-Jul-23 15:33N 44°05' E 009°45'4 4.2
2016-Jul-23 14:33N 44°03' E 009°50'2 1.9
2016-Jul-23 13:33N 44°03' E 009°48'8 8.0
2016-Jul-23 12:33N 44°09' E 009°39'0 0.0
2016-Jul-23 11:33N 44°09' E 009°39'4 4.2
2016-Jul-23 10:29N 44°06' E 009°44'5 5.6
2016-Jul-23 09:33N 44°04' E 009°51'2 2.1
2016-Jul-23 08:33N 44°06' E 009°50'0 0.0
2016-Jul-23 07:33N 44°06' E 009°50'0 0.0
2016-Jul-23 06:33N 44°06' E 009°50'0 0.0
2016-Jul-22 14:33N 44°06' E 009°50'3 3.1
2016-Jul-22 13:33N 44°03' E 009°50'4 3.9
2016-Jul-22 12:33N 44°05' E 009°45'6 5.8
2016-Jul-22 11:33N 44°09' E 009°39'0 0.0
2016-Jul-22 10:33N 44°09' E 009°39'0 0.1
2016-Jul-22 09:34N 44°09' E 009°39'7 6.6
2016-Jul-22 08:34N 44°04' E 009°46'3 3.0
2016-Jul-22 07:34N 44°06' E 009°50'0 0.0
2016-Jul-22 06:34N 44°06' E 009°50'1 0.1
2016-Jul-21 14:33N 44°05' E 009°50'8 8.0
2016-Jul-21 13:30N 44°09' E 009°39'0 0.1
2016-Jul-21 12:32N 44°09' E 009°39'1 0.6
2016-Jul-21 11:33N 44°08' E 009°40'0 0.4
2016-Jul-21 10:33N 44°08' E 009°40'3 3.4
2016-Jul-21 09:34N 44°06' E 009°43'0 0.4
2016-Jul-21 08:25N 44°06' E 009°44'4 4.6
2016-Jul-21 07:33N 44°06' E 009°50'0 0.2
2016-Jul-21 06:33N 44°06' E 009°50'2 0.2
2016-Jul-20 15:33N 44°04' E 009°51'8 7.5
2016-Jul-20 14:25N 44°08' E 009°41'2 2.5
2016-Jul-20 13:33N 44°06' E 009°43'1 0.7
2016-Jul-20 12:33N 44°06' E 009°44'4 4.1
2016-Jul-20 11:33N 44°09' E 009°39'6 6.6
2016-Jul-20 10:33N 44°04' E 009°46'4 3.6
2016-Jul-20 09:34N 44°03' E 009°51'0 0.3
2016-Jul-20 08:33N 44°03' E 009°50'3 3.1
2016-Jul-20 07:33N 44°06' E 009°50'0 0.0
2016-Jul-19 16:07N 44°06' E 009°50'3 5.1
2016-Jul-19 15:33N 44°04' E 009°52'2 1.5
2016-Jul-19 14:33N 44°03' E 009°50'7 7.2
2016-Jul-19 13:32N 44°07' E 009°42'2 2.3
2016-Jul-19 12:33N 44°09' E 009°39'0 0.0
2016-Jul-19 11:32N 44°09' E 009°39'0 0.1
2016-Jul-19 10:32N 44°09' E 009°39'4 4.3
2016-Jul-19 09:32N 44°06' E 009°44'5 5.3
2016-Jul-19 08:33N 44°03' E 009°50'1 0.9
2016-Jul-19 07:33N 44°02' E 009°51'4 4.0
2016-Jul-19 06:33N 44°06' E 009°50'0 0.0
2016-Jul-18 17:04N 44°06' E 009°50'3 6.0
2016-Jul-18 16:33N 44°03' E 009°49'9 8.9
2016-Jul-18 15:33N 44°09' E 009°39'4 4.5
2016-Jul-18 14:33N 44°06' E 009°44'5 5.2
2016-Jul-18 13:33N 44°03' E 009°50'3 2.8
2016-Jul-18 12:33N 44°06' E 009°50'0 0.0
2016-Jul-18 11:33N 44°06' E 009°50'3 3.0
2016-Jul-18 10:34N 44°04' E 009°47'7 7.4
2016-Jul-18 09:33N 44°09' E 009°39'4 4.5
2016-Jul-18 08:33N 44°06' E 009°44'5 4.9
2016-Jul-18 07:34N 44°05' E 009°51'2 1.6
2016-Jul-18 06:34N 44°06' E 009°50'1 0.6
2016-Jul-18 05:33N 44°06' E 009°50'2 0.1
2016-Jul-17 16:34N 44°05' E 009°51'8 6.2
2016-Jul-17 15:17N 44°08' E 009°41'1 1.8
2016-Jul-17 14:33N 44°09' E 009°39'0 0.1
2016-Jul-17 13:32N 44°09' E 009°39'1 0.8
2016-Jul-17 12:33N 44°08' E 009°39'4 3.3
2016-Jul-17 11:18N 44°06' E 009°44'6 7.5
2016-Jul-17 10:33N 44°03' E 009°51'3 3.0
2016-Jul-17 09:33N 44°06' E 009°50'3 3.0
2016-Jul-17 08:33N 44°03' E 009°51'3 2.8
2016-Jul-17 07:33N 44°06' E 009°50'0 0.4
2016-Jul-17 06:33N 44°06' E 009°50'0 0.0
2016-Jul-16 17:24N 44°06' E 009°50'3 3.4
2016-Jul-16 16:33N 44°04' E 009°47'8 7.7
2016-Jul-16 15:34N 44°09' E 009°39'5 5.1
2016-Jul-16 14:33N 44°05' E 009°44'5 4.7
2016-Jul-16 13:33N 44°03' E 009°50'0 0.0
2016-Jul-16 12:33N 44°03' E 009°50'0 0.0
2016-Jul-16 11:33N 44°03' E 009°50'8 8.1
2016-Jul-16 10:31N 44°08' E 009°41'2 2.1
2016-Jul-16 09:33N 44°07' E 009°43'6 6.5
2016-Jul-16 08:33N 44°03' E 009°50'3 3.1
2016-Jul-16 07:34N 44°06' E 009°50'0 0.0
2016-Jul-16 06:34N 44°06' E 009°50'0 0.0
2016-Jul-15 17:11N 44°06' E 009°50'  
Track history (hours):
 
Tides and Currents Weather Stations Pressure Air Temp Water Temp Dewpoint Dewpoint Depression Visibility Wind Speed Wind Dir Waves Ship Positions

Euro IV

Last reported at 2016-Jul-25 17:05 UTC. Time now 2016-Jul-25 20:07 UTC.
Position N 44°06' E 009°50'.

Length 25 m; draft 1.3 m.

Type: Passenger vessel. MMSI: 247131500.

Date/timePositionNaut miles runAvg speedWind from/ knotsBaromVisibWave heightAir tempDewpointWater temp
2016-Jul-25 17:05N 44°06' E 009°50'4 6.8
2016-Jul-25 16:33N 44°04' E 009°54'3 3.0
2016-Jul-25 15:34N 44°03' E 009°50'1 0.7
2016-Jul-25 14:33N 44°03' E 009°51'1 1.0
2016-Jul-25 13:33N 44°03' E 009°50'1 1.1
2016-Jul-25 12:34N 44°03' E 009°51'3 2.7
2016-Jul-25 11:33N 44°04' E 009°55'4 3.7
2016-Jul-25 10:33N 44°02' E 009°50'1 0.8
2016-Jul-25 09:33N 44°03' E 009°50'0 0.0
2016-Jul-25 08:33N 44°03' E 009°50'3 3.4
2016-Jul-25 07:33N 44°04' E 009°55'3 0.1
2016-Jul-23 17:33N 44°03' E 009°51'1211.1
2016-Jul-23 16:31N 44°09' E 009°37'7 7.3
2016-Jul-23 15:33N 44°05' E 009°45'4 4.2
2016-Jul-23 14:33N 44°03' E 009°50'2 1.9
2016-Jul-23 13:33N 44°03' E 009°48'8 8.0
2016-Jul-23 12:33N 44°09' E 009°39'0 0.0
2016-Jul-23 11:33N 44°09' E 009°39'4 4.2
2016-Jul-23 10:29N 44°06' E 009°44'5 5.6
2016-Jul-23 09:33N 44°04' E 009°51'2 2.1
2016-Jul-23 08:33N 44°06' E 009°50'0 0.0
2016-Jul-23 07:33N 44°06' E 009°50'0 0.0
2016-Jul-23 06:33N 44°06' E 009°50'0 0.0
2016-Jul-22 14:33N 44°06' E 009°50'3 3.1
2016-Jul-22 13:33N 44°03' E 009°50'4 3.9
2016-Jul-22 12:33N 44°05' E 009°45'6 5.8
2016-Jul-22 11:33N 44°09' E 009°39'0 0.0
2016-Jul-22 10:33N 44°09' E 009°39'0 0.1
2016-Jul-22 09:34N 44°09' E 009°39'7 6.6
2016-Jul-22 08:34N 44°04' E 009°46'3 3.0
2016-Jul-22 07:34N 44°06' E 009°50'0 0.0
2016-Jul-22 06:34N 44°06' E 009°50'1 0.1
2016-Jul-21 14:33N 44°05' E 009°50'8 8.0
2016-Jul-21 13:30N 44°09' E 009°39'0 0.1
2016-Jul-21 12:32N 44°09' E 009°39'1 0.6
2016-Jul-21 11:33N 44°08' E 009°40'0 0.4
2016-Jul-21 10:33N 44°08' E 009°40'3 3.4
2016-Jul-21 09:34N 44°06' E 009°43'0 0.4
2016-Jul-21 08:25N 44°06' E 009°44'4 4.6
2016-Jul-21 07:33N 44°06' E 009°50'0 0.2
2016-Jul-21 06:33N 44°06' E 009°50'2 0.2
2016-Jul-20 15:33N 44°04' E 009°51'8 7.5
2016-Jul-20 14:25N 44°08' E 009°41'2 2.5
2016-Jul-20 13:33N 44°06' E 009°43'1 0.7
2016-Jul-20 12:33N 44°06' E 009°44'4 4.1
2016-Jul-20 11:33N 44°09' E 009°39'6 6.6
2016-Jul-20 10:33N 44°04' E 009°46'4 3.6
2016-Jul-20 09:34N 44°03' E 009°51'0 0.3
2016-Jul-20 08:33N 44°03' E 009°50'3 3.1
2016-Jul-20 07:33N 44°06' E 009°50'0 0.0
2016-Jul-19 16:07N 44°06' E 009°50'3 5.1
2016-Jul-19 15:33N 44°04' E 009°52'2 1.5
2016-Jul-19 14:33N 44°03' E 009°50'7 7.2
2016-Jul-19 13:32N 44°07' E 009°42'2 2.3
2016-Jul-19 12:33N 44°09' E 009°39'0 0.0
2016-Jul-19 11:32N 44°09' E 009°39'0 0.1
2016-Jul-19 10:32N 44°09' E 009°39'4 4.3
2016-Jul-19 09:32N 44°06' E 009°44'5 5.3
2016-Jul-19 08:33N 44°03' E 009°50'1 0.9
2016-Jul-19 07:33N 44°02' E 009°51'4 4.0
2016-Jul-19 06:33N 44°06' E 009°50'0 0.0
2016-Jul-18 17:04N 44°06' E 009°50'3 6.0
2016-Jul-18 16:33N 44°03' E 009°49'9 8.9
2016-Jul-18 15:33N 44°09' E 009°39'4 4.5
2016-Jul-18 14:33N 44°06' E 009°44'5 5.2
2016-Jul-18 13:33N 44°03' E 009°50'3 2.8
2016-Jul-18 12:33N 44°06' E 009°50'0 0.0
2016-Jul-18 11:33N 44°06' E 009°50'3 3.0
2016-Jul-18 10:34N 44°04' E 009°47'7 7.4
2016-Jul-18 09:33N 44°09' E 009°39'4 4.5
2016-Jul-18 08:33N 44°06' E 009°44'5 4.9
2016-Jul-18 07:34N 44°05' E 009°51'2 1.6
2016-Jul-18 06:34N 44°06' E 009°50'1 0.6
2016-Jul-18 05:33N 44°06' E 009°50'2 0.1
2016-Jul-17 16:34N 44°05' E 009°51'8 6.2
2016-Jul-17 15:17N 44°08' E 009°41'1 1.8
2016-Jul-17 14:33N 44°09' E 009°39'0 0.1
2016-Jul-17 13:32N 44°09' E 009°39'1 0.8
2016-Jul-17 12:33N 44°08' E 009°39'4 3.3
2016-Jul-17 11:18N 44°06' E 009°44'6 7.5
2016-Jul-17 10:33N 44°03' E 009°51'3 3.0
2016-Jul-17 09:33N 44°06' E 009°50'3 3.0
2016-Jul-17 08:33N 44°03' E 009°51'3 2.8
2016-Jul-17 07:33N 44°06' E 009°50'0 0.4
2016-Jul-17 06:33N 44°06' E 009°50'0 0.0
2016-Jul-16 17:24N 44°06' E 009°50'3 3.4
2016-Jul-16 16:33N 44°04' E 009°47'8 7.7
2016-Jul-16 15:34N 44°09' E 009°39'5 5.1
2016-Jul-16 14:33N 44°05' E 009°44'5 4.7
2016-Jul-16 13:33N 44°03' E 009°50'0 0.0
2016-Jul-16 12:33N 44°03' E 009°50'0 0.0
2016-Jul-16 11:33N 44°03' E 009°50'8 8.1
2016-Jul-16 10:31N 44°08' E 009°41'2 2.1
2016-Jul-16 09:33N 44°07' E 009°43'6 6.5
2016-Jul-16 08:33N 44°03' E 009°50'3 3.1
2016-Jul-16 07:34N 44°06' E 009°50'0 0.0
2016-Jul-16 06:34N 44°06' E 009°50'0 0.0
2016-Jul-15 17:11N 44°06' E 009°50'  

Dump ship's entire track history